sensor_id;sensor_type;location;lat;lon;timestamp;pressure;altitude;pressure_sealevel;temperature;humidity
63281;BME280;49406;51.044;3.766;2022-08-02T00:01:01;101932.02;;;17.24;71.43
63281;BME280;49406;51.044;3.766;2022-08-02T00:03:36;101931.48;;;17.26;71.62
63281;BME280;49406;51.044;3.766;2022-08-02T00:06:10;101929.00;;;17.28;71.62
63281;BME280;49406;51.044;3.766;2022-08-02T00:08:45;101926.33;;;17.39;71.42
63281;BME280;49406;51.044;3.766;2022-08-02T00:11:20;101920.85;;;17.38;71.06
63281;BME280;49406;51.044;3.766;2022-08-02T00:13:54;101920.52;;;17.29;71.32
63281;BME280;49406;51.044;3.766;2022-08-02T00:16:29;101917.71;;;17.20;71.67
63281;BME280;49406;51.044;3.766;2022-08-02T00:19:04;101915.97;;;17.15;72.51
63281;BME280;49406;51.044;3.766;2022-08-02T00:21:38;101924.46;;;17.14;72.65
63281;BME280;49406;51.044;3.766;2022-08-02T00:24:13;101929.92;;;17.12;72.69
63281;BME280;49406;51.044;3.766;2022-08-02T00:26:47;101932.58;;;17.09;72.54
63281;BME280;49406;51.044;3.766;2022-08-02T00:29:22;101935.05;;;17.17;72.39
63281;BME280;49406;51.044;3.766;2022-08-02T00:31:57;101934.70;;;17.17;72.38
63281;BME280;49406;51.044;3.766;2022-08-02T00:34:31;101930.63;;;17.13;72.62
63281;BME280;49406;51.044;3.766;2022-08-02T00:37:06;101923.38;;;17.09;72.66
63281;BME280;49406;51.044;3.766;2022-08-02T00:39:40;101918.80;;;17.09;72.67
63281;BME280;49406;51.044;3.766;2022-08-02T00:42:15;101919.31;;;17.10;72.80
63281;BME280;49406;51.044;3.766;2022-08-02T00:44:50;101916.68;;;17.16;73.08
63281;BME280;49406;51.044;3.766;2022-08-02T00:47:24;101912.06;;;17.21;73.44
63281;BME280;49406;51.044;3.766;2022-08-02T00:49:59;101910.44;;;17.35;73.65
63281;BME280;49406;51.044;3.766;2022-08-02T00:52:33;101904.20;;;17.51;74.03
63281;BME280;49406;51.044;3.766;2022-08-02T00:55:09;101908.40;;;17.59;74.34
63281;BME280;49406;51.044;3.766;2022-08-02T00:57:44;101902.02;;;17.62;75.00
63281;BME280;49406;51.044;3.766;2022-08-02T01:00:18;101901.15;;;17.66;75.59
63281;BME280;49406;51.044;3.766;2022-08-02T01:02:53;101899.90;;;17.72;76.01
63281;BME280;49406;51.044;3.766;2022-08-02T01:05:28;101903.04;;;17.79;76.60
63281;BME280;49406;51.044;3.766;2022-08-02T01:08:02;101907.44;;;17.87;76.88
63281;BME280;49406;51.044;3.766;2022-08-02T01:10:37;101906.13;;;18.01;76.77
63281;BME280;49406;51.044;3.766;2022-08-02T01:13:11;101904.52;;;18.04;77.15
63281;BME280;49406;51.044;3.766;2022-08-02T01:15:54;101903.96;;;18.07;77.36
63281;BME280;49406;51.044;3.766;2022-08-02T01:18:37;101909.27;;;18.06;77.77
63281;BME280;49406;51.044;3.766;2022-08-02T01:21:26;101908.20;;;18.07;77.96
63281;BME280;49406;51.044;3.766;2022-08-02T01:24:18;101907.29;;;18.13;78.16
63281;BME280;49406;51.044;3.766;2022-08-02T01:26:59;101898.39;;;18.21;78.03
63281;BME280;49406;51.044;3.766;2022-08-02T01:29:42;101897.88;;;18.18;78.02
63281;BME280;49406;51.044;3.766;2022-08-02T01:32:23;101895.24;;;18.13;78.52
63281;BME280;49406;51.044;3.766;2022-08-02T01:35:02;101889.79;;;18.09;78.93
63281;BME280;49406;51.044;3.766;2022-08-02T01:37:42;101885.89;;;18.10;79.26
63281;BME280;49406;51.044;3.766;2022-08-02T01:40:24;101887.80;;;18.16;79.11
63281;BME280;49406;51.044;3.766;2022-08-02T01:43:01;101892.06;;;18.15;79.33
63281;BME280;49406;51.044;3.766;2022-08-02T01:45:38;101890.86;;;18.08;79.71
63281;BME280;49406;51.044;3.766;2022-08-02T01:48:14;101890.38;;;18.02;80.09
63281;BME280;49406;51.044;3.766;2022-08-02T01:50:50;101894.83;;;17.98;80.39
63281;BME280;49406;51.044;3.766;2022-08-02T01:53:26;101901.73;;;17.96;80.58
63281;BME280;49406;51.044;3.766;2022-08-02T01:56:03;101906.85;;;17.99;80.77
63281;BME280;49406;51.044;3.766;2022-08-02T01:58:40;101901.02;;;17.95;80.94
63281;BME280;49406;51.044;3.766;2022-08-02T02:01:16;101895.56;;;17.90;81.56
63281;BME280;49406;51.044;3.766;2022-08-02T02:03:52;101885.88;;;17.85;81.73
63281;BME280;49406;51.044;3.766;2022-08-02T02:06:27;101877.20;;;17.86;81.95
63281;BME280;49406;51.044;3.766;2022-08-02T02:09:03;101876.27;;;17.90;81.72
63281;BME280;49406;51.044;3.766;2022-08-02T02:11:38;101878.27;;;17.84;82.38
63281;BME280;49406;51.044;3.766;2022-08-02T02:14:14;101885.00;;;17.79;82.66
63281;BME280;49406;51.044;3.766;2022-08-02T02:16:49;101882.20;;;17.74;82.96
63281;BME280;49406;51.044;3.766;2022-08-02T02:19:24;101876.38;;;17.72;83.07
63281;BME280;49406;51.044;3.766;2022-08-02T02:22:00;101870.51;;;17.77;82.87
63281;BME280;49406;51.044;3.766;2022-08-02T02:24:35;101871.94;;;17.73;83.25
63281;BME280;49406;51.044;3.766;2022-08-02T02:27:12;101869.32;;;17.67;83.55
63281;BME280;49406;51.044;3.766;2022-08-02T02:29:49;101867.55;;;17.64;83.81
63281;BME280;49406;51.044;3.766;2022-08-02T02:32:27;101865.59;;;17.66;83.72
63281;BME280;49406;51.044;3.766;2022-08-02T02:35:03;101851.80;;;17.71;83.67
63281;BME280;49406;51.044;3.766;2022-08-02T02:37:39;101845.79;;;17.70;83.67
63281;BME280;49406;51.044;3.766;2022-08-02T02:40:18;101846.85;;;17.70;83.74
63281;BME280;49406;51.044;3.766;2022-08-02T02:42:54;101849.32;;;17.67;83.77
63281;BME280;49406;51.044;3.766;2022-08-02T02:45:30;101852.85;;;17.62;84.11
63281;BME280;49406;51.044;3.766;2022-08-02T02:48:07;101859.95;;;17.58;84.10
63281;BME280;49406;51.044;3.766;2022-08-02T02:50:44;101862.61;;;17.56;84.43
63281;BME280;49406;51.044;3.766;2022-08-02T02:53:19;101864.02;;;17.57;84.38
63281;BME280;49406;51.044;3.766;2022-08-02T02:55:54;101859.23;;;17.63;83.98
63281;BME280;49406;51.044;3.766;2022-08-02T02:58:29;101858.34;;;17.61;84.15
63281;BME280;49406;51.044;3.766;2022-08-02T03:01:04;101857.30;;;17.58;84.19
63281;BME280;49406;51.044;3.766;2022-08-02T03:03:59;101863.52;;;17.53;84.67
63281;BME280;49406;51.044;3.766;2022-08-02T03:06:34;101860.19;;;17.49;84.83
63281;BME280;49406;51.044;3.766;2022-08-02T03:09:10;101854.88;;;17.44;84.99
63281;BME280;49406;51.044;3.766;2022-08-02T03:11:44;101854.53;;;17.43;84.85
63281;BME280;49406;51.044;3.766;2022-08-02T03:14:19;101857.90;;;17.44;84.62
63281;BME280;49406;51.044;3.766;2022-08-02T03:16:55;101857.56;;;17.39;84.77
63281;BME280;49406;51.044;3.766;2022-08-02T03:19:29;101857.77;;;17.34;84.94
63281;BME280;49406;51.044;3.766;2022-08-02T03:22:04;101856.20;;;17.25;85.24
63281;BME280;49406;51.044;3.766;2022-08-02T03:24:38;101863.30;;;17.17;85.54
63281;BME280;49406;51.044;3.766;2022-08-02T03:27:13;101871.78;;;17.10;85.64
63281;BME280;49406;51.044;3.766;2022-08-02T03:29:47;101873.91;;;17.10;85.68
63281;BME280;49406;51.044;3.766;2022-08-02T03:32:21;101871.80;;;17.06;85.79
63281;BME280;49406;51.044;3.766;2022-08-02T03:34:56;101865.64;;;17.01;86.06
63281;BME280;49406;51.044;3.766;2022-08-02T03:37:32;101864.94;;;16.94;86.46
63281;BME280;49406;51.044;3.766;2022-08-02T03:40:09;101862.48;;;16.87;86.95
63281;BME280;49406;51.044;3.766;2022-08-02T03:42:44;101860.37;;;16.81;87.23
63281;BME280;49406;51.044;3.766;2022-08-02T03:45:20;101856.30;;;16.81;87.13
63281;BME280;49406;51.044;3.766;2022-08-02T03:47:55;101855.42;;;16.84;87.00
63281;BME280;49406;51.044;3.766;2022-08-02T03:50:30;101844.83;;;16.76;87.14
63281;BME280;49406;51.044;3.766;2022-08-02T03:53:05;101843.77;;;16.72;87.67
63281;BME280;49406;51.044;3.766;2022-08-02T03:55:40;101842.02;;;16.67;88.34
63281;BME280;49406;51.044;3.766;2022-08-02T03:58:19;101836.69;;;16.60;88.66
63281;BME280;49406;51.044;3.766;2022-08-02T04:00:55;101842.17;;;16.57;88.81
63281;BME280;49406;51.044;3.766;2022-08-02T04:03:30;101843.40;;;16.58;88.73
63281;BME280;49406;51.044;3.766;2022-08-02T04:06:05;101838.83;;;16.53;88.76
63281;BME280;49406;51.044;3.766;2022-08-02T04:08:39;101838.83;;;16.49;89.06
63281;BME280;49406;51.044;3.766;2022-08-02T04:11:13;101839.70;;;16.43;89.85
63281;BME280;49406;51.044;3.766;2022-08-02T04:14:08;101845.53;;;16.39;90.51
63281;BME280;49406;51.044;3.766;2022-08-02T04:16:45;101847.29;;;16.38;90.25
63281;BME280;49406;51.044;3.766;2022-08-02T04:19:25;101857.34;;;16.42;90.07
63281;BME280;49406;51.044;3.766;2022-08-02T04:22:03;101853.65;;;16.39;90.20
63281;BME280;49406;51.044;3.766;2022-08-02T04:24:40;101851.71;;;16.35;90.42
63281;BME280;49406;51.044;3.766;2022-08-02T04:27:18;101849.58;;;16.29;91.11
63281;BME280;49406;51.044;3.766;2022-08-02T04:29:54;101855.92;;;16.25;91.34
63281;BME280;49406;51.044;3.766;2022-08-02T04:32:29;101858.21;;;16.25;91.46
63281;BME280;49406;51.044;3.766;2022-08-02T04:35:05;101863.02;;;16.31;91.25
63281;BME280;49406;51.044;3.766;2022-08-02T04:37:41;101865.47;;;16.29;91.50
63281;BME280;49406;51.044;3.766;2022-08-02T04:40:16;101862.98;;;16.29;91.55
63281;BME280;49406;51.044;3.766;2022-08-02T04:42:50;101866.86;;;16.26;91.95
63281;BME280;49406;51.044;3.766;2022-08-02T04:45:25;101871.10;;;16.23;92.13
63281;BME280;49406;51.044;3.766;2022-08-02T04:48:01;101874.10;;;16.29;92.48
63281;BME280;49406;51.044;3.766;2022-08-02T04:50:35;101868.83;;;16.39;92.05
63281;BME280;49406;51.044;3.766;2022-08-02T04:53:10;101872.52;;;16.41;91.97
63281;BME280;49406;51.044;3.766;2022-08-02T04:55:44;101875.70;;;16.43;92.05
63281;BME280;49406;51.044;3.766;2022-08-02T04:58:19;101881.89;;;16.42;92.15
63281;BME280;49406;51.044;3.766;2022-08-02T05:00:53;101883.64;;;16.42;92.44
63281;BME280;49406;51.044;3.766;2022-08-02T05:03:28;101883.81;;;16.44;92.56
63281;BME280;49406;51.044;3.766;2022-08-02T05:06:02;101884.89;;;16.49;92.22
63281;BME280;49406;51.044;3.766;2022-08-02T05:08:37;101879.59;;;16.58;91.94
63281;BME280;49406;51.044;3.766;2022-08-02T05:11:11;101879.41;;;16.61;91.73
63281;BME280;49406;51.044;3.766;2022-08-02T05:13:46;101876.78;;;16.64;91.81
63281;BME280;49406;51.044;3.766;2022-08-02T05:16:21;101876.43;;;16.65;92.02
63281;BME280;49406;51.044;3.766;2022-08-02T05:18:57;101872.90;;;16.65;92.08
63281;BME280;49406;51.044;3.766;2022-08-02T05:21:32;101869.55;;;16.72;92.06
63281;BME280;49406;51.044;3.766;2022-08-02T05:24:08;101864.59;;;16.91;91.81
63281;BME280;49406;51.044;3.766;2022-08-02T05:26:42;101862.79;;;17.10;91.22
63281;BME280;49406;51.044;3.766;2022-08-02T05:29:17;101856.91;;;17.24;90.48
63281;BME280;49406;51.044;3.766;2022-08-02T05:31:52;101861.48;;;17.27;90.03
63281;BME280;49406;51.044;3.766;2022-08-02T05:34:26;101864.13;;;17.29;89.67
63281;BME280;49406;51.044;3.766;2022-08-02T05:37:01;101861.29;;;17.37;89.33
63281;BME280;49406;51.044;3.766;2022-08-02T05:39:35;101857.02;;;17.42;88.78
63281;BME280;49406;51.044;3.766;2022-08-02T05:42:10;101853.84;;;17.40;88.82
63281;BME280;49406;51.044;3.766;2022-08-02T05:44:44;101856.65;;;17.49;89.12
63281;BME280;49406;51.044;3.766;2022-08-02T05:47:19;101856.83;;;17.88;88.99
63281;BME280;49406;51.044;3.766;2022-08-02T05:49:54;101850.23;;;18.47;87.60
63281;BME280;49406;51.044;3.766;2022-08-02T05:52:38;101844.98;;;18.98;85.53
63281;BME280;49406;51.044;3.766;2022-08-02T05:55:17;101848.98;;;19.51;83.71
63281;BME280;49406;51.044;3.766;2022-08-02T05:58:00;101850.46;;;19.99;80.71
63281;BME280;49406;51.044;3.766;2022-08-02T06:00:36;101857.91;;;20.45;79.45
63281;BME280;49406;51.044;3.766;2022-08-02T06:03:23;101859.61;;;20.91;77.74
63281;BME280;49406;51.044;3.766;2022-08-02T06:06:03;101854.53;;;21.34;75.87
63281;BME280;49406;51.044;3.766;2022-08-02T06:08:42;101853.63;;;21.68;74.13
63281;BME280;49406;51.044;3.766;2022-08-02T06:11:16;101852.33;;;21.95;72.81
63281;BME280;49406;51.044;3.766;2022-08-02T06:13:54;101856.63;;;22.10;70.83
63281;BME280;49406;51.044;3.766;2022-08-02T06:16:29;101865.02;;;22.09;70.39
63281;BME280;49406;51.044;3.766;2022-08-02T06:19:04;101868.66;;;22.06;68.97
63281;BME280;49406;51.044;3.766;2022-08-02T06:21:40;101869.02;;;22.05;69.23
63281;BME280;49406;51.044;3.766;2022-08-02T06:24:18;101868.11;;;22.07;68.85
63281;BME280;49406;51.044;3.766;2022-08-02T06:26:53;101867.95;;;22.07;68.62
63281;BME280;49406;51.044;3.766;2022-08-02T06:29:31;101864.29;;;22.18;67.95
63281;BME280;49406;51.044;3.766;2022-08-02T06:32:07;101859.34;;;22.24;67.61
63281;BME280;49406;51.044;3.766;2022-08-02T06:34:42;101861.92;;;22.41;67.30
63281;BME280;49406;51.044;3.766;2022-08-02T06:37:25;101860.41;;;22.59;66.41
63281;BME280;49406;51.044;3.766;2022-08-02T06:40:05;101861.14;;;22.72;65.72
63281;BME280;49406;51.044;3.766;2022-08-02T06:42:47;101865.41;;;22.94;65.44
63281;BME280;49406;51.044;3.766;2022-08-02T06:45:22;101860.86;;;23.10;64.50
63281;BME280;49406;51.044;3.766;2022-08-02T06:47:56;101857.60;;;23.18;63.96
63281;BME280;49406;51.044;3.766;2022-08-02T06:50:31;101852.91;;;23.32;63.33
63281;BME280;49406;51.044;3.766;2022-08-02T06:53:07;101857.14;;;23.40;62.50
63281;BME280;49406;51.044;3.766;2022-08-02T06:55:41;101860.46;;;23.48;62.41
63281;BME280;49406;51.044;3.766;2022-08-02T06:58:16;101859.16;;;23.51;61.81
63281;BME280;49406;51.044;3.766;2022-08-02T07:00:51;101863.48;;;23.56;61.35
63281;BME280;49406;51.044;3.766;2022-08-02T07:03:25;101861.52;;;23.62;61.28
63281;BME280;49406;51.044;3.766;2022-08-02T07:06:00;101864.56;;;23.74;61.21
63281;BME280;49406;51.044;3.766;2022-08-02T07:08:35;101867.74;;;23.87;60.52
63281;BME280;49406;51.044;3.766;2022-08-02T07:11:10;101865.41;;;23.93;60.09
63281;BME280;49406;51.044;3.766;2022-08-02T07:13:45;101867.92;;;24.04;59.62
63281;BME280;49406;51.044;3.766;2022-08-02T07:16:19;101863.34;;;24.18;59.25
63281;BME280;49406;51.044;3.766;2022-08-02T07:18:53;101865.02;;;24.45;59.08
63281;BME280;49406;51.044;3.766;2022-08-02T07:21:28;101862.70;;;24.71;58.18
63281;BME280;49406;51.044;3.766;2022-08-02T07:24:03;101859.20;;;24.94;57.38
63281;BME280;49406;51.044;3.766;2022-08-02T07:26:38;101859.21;;;25.04;56.03
63281;BME280;49406;51.044;3.766;2022-08-02T07:29:12;101855.77;;;25.10;55.70
63281;BME280;49406;51.044;3.766;2022-08-02T07:31:46;101853.20;;;25.22;54.95
63281;BME280;49406;51.044;3.766;2022-08-02T07:34:21;101853.45;;;25.34;54.50
63281;BME280;49406;51.044;3.766;2022-08-02T07:36:55;101854.80;;;25.36;54.19
63281;BME280;49406;51.044;3.766;2022-08-02T07:39:30;101859.77;;;25.42;54.23
63281;BME280;49406;51.044;3.766;2022-08-02T07:42:05;101853.36;;;25.65;54.22
63281;BME280;49406;51.044;3.766;2022-08-02T07:44:39;101853.68;;;25.80;53.09
63281;BME280;49406;51.044;3.766;2022-08-02T07:47:14;101859.35;;;25.91;52.68
63281;BME280;49406;51.044;3.766;2022-08-02T07:49:48;101857.60;;;26.07;52.34
63281;BME280;49406;51.044;3.766;2022-08-02T07:52:23;101852.38;;;26.17;52.21
63281;BME280;49406;51.044;3.766;2022-08-02T07:54:57;101849.37;;;26.55;51.82
63281;BME280;49406;51.044;3.766;2022-08-02T08:05:41;101859.40;;;26.76;49.20
63281;BME280;49406;51.044;3.766;2022-08-02T08:08:15;101863.30;;;26.60;49.30
63281;BME280;49406;51.044;3.766;2022-08-02T08:10:50;101868.58;;;26.38;49.92
63281;BME280;49406;51.044;3.766;2022-08-02T08:13:24;101869.42;;;26.25;50.58
63281;BME280;49406;51.044;3.766;2022-08-02T08:15:59;101872.36;;;26.28;50.52
63281;BME280;49406;51.044;3.766;2022-08-02T08:18:34;101871.42;;;26.39;49.81
63281;BME280;49406;51.044;3.766;2022-08-02T08:21:09;101874.39;;;26.40;49.47
63281;BME280;49406;51.044;3.766;2022-08-02T08:23:43;101874.53;;;26.58;49.47
63281;BME280;49406;51.044;3.766;2022-08-02T08:26:18;101870.33;;;26.77;48.42
63281;BME280;49406;51.044;3.766;2022-08-02T08:28:53;101866.08;;;26.92;48.65
63281;BME280;49406;51.044;3.766;2022-08-02T08:31:27;101862.39;;;27.14;48.38
63281;BME280;49406;51.044;3.766;2022-08-02T08:34:01;101858.46;;;27.30;48.15
63281;BME280;49406;51.044;3.766;2022-08-02T08:36:36;101859.74;;;27.45;46.95
63281;BME280;49406;51.044;3.766;2022-08-02T08:39:11;101855.96;;;27.38;46.78
63281;BME280;49406;51.044;3.766;2022-08-02T08:41:45;101854.52;;;27.34;46.67
63281;BME280;49406;51.044;3.766;2022-08-02T08:44:20;101852.98;;;27.28;46.32
63281;BME280;49406;51.044;3.766;2022-08-02T08:46:55;101851.23;;;27.15;46.54
63281;BME280;49406;51.044;3.766;2022-08-02T08:49:32;101843.08;;;27.06;47.04
63281;BME280;49406;51.044;3.766;2022-08-02T08:52:08;101845.46;;;27.04;47.30
63281;BME280;49406;51.044;3.766;2022-08-02T08:54:44;101840.43;;;27.04;46.64
63281;BME280;49406;51.044;3.766;2022-08-02T08:57:21;101841.98;;;27.25;46.72
63281;BME280;49406;51.044;3.766;2022-08-02T08:59:56;101842.38;;;27.52;46.39
63281;BME280;49406;51.044;3.766;2022-08-02T09:02:33;101843.24;;;27.72;46.00
63281;BME280;49406;51.044;3.766;2022-08-02T09:05:10;101839.71;;;27.78;44.65
63281;BME280;49406;51.044;3.766;2022-08-02T09:07:47;101839.48;;;27.79;45.33
63281;BME280;49406;51.044;3.766;2022-08-02T09:10:40;101837.60;;;27.84;44.81
63281;BME280;49406;51.044;3.766;2022-08-02T09:13:17;101842.56;;;28.08;44.93
63281;BME280;49406;51.044;3.766;2022-08-02T09:15:56;101842.75;;;28.37;44.50
63281;BME280;49406;51.044;3.766;2022-08-02T09:18:31;101839.20;;;28.54;43.08
63281;BME280;49406;51.044;3.766;2022-08-02T09:21:07;101842.32;;;28.63;43.58
63281;BME280;49406;51.044;3.766;2022-08-02T09:23:43;101837.39;;;28.75;42.49
63281;BME280;49406;51.044;3.766;2022-08-02T09:26:19;101835.63;;;28.71;41.79
63281;BME280;49406;51.044;3.766;2022-08-02T09:29:00;101835.92;;;28.58;41.28
63281;BME280;49406;51.044;3.766;2022-08-02T09:31:35;101839.78;;;28.35;41.00
63281;BME280;49406;51.044;3.766;2022-08-02T09:34:09;101844.48;;;28.34;41.53
63281;BME280;49406;51.044;3.766;2022-08-02T09:36:45;101842.16;;;28.41;41.76
63281;BME280;49406;51.044;3.766;2022-08-02T09:39:19;101841.13;;;28.76;41.32
63281;BME280;49406;51.044;3.766;2022-08-02T09:52:12;101841.64;;;29.92;38.65
63281;BME280;49406;51.044;3.766;2022-08-02T09:54:47;101836.54;;;29.68;38.55
63281;BME280;49406;51.044;3.766;2022-08-02T09:57:29;101834.98;;;29.54;39.03
63281;BME280;49406;51.044;3.766;2022-08-02T10:00:09;101835.09;;;29.31;39.16
63281;BME280;49406;51.044;3.766;2022-08-02T10:03:05;101838.11;;;29.06;39.84
63281;BME280;49406;51.044;3.766;2022-08-02T10:05:51;101847.42;;;28.86;40.40
63281;BME280;49406;51.044;3.766;2022-08-02T10:08:27;101848.81;;;28.73;40.38
63281;BME280;49406;51.044;3.766;2022-08-02T10:11:02;101850.17;;;28.61;40.79
63281;BME280;49406;51.044;3.766;2022-08-02T10:13:37;101843.84;;;28.61;41.33
63281;BME280;49406;51.044;3.766;2022-08-02T10:16:12;101838.77;;;28.76;41.61
63281;BME280;49406;51.044;3.766;2022-08-02T10:18:48;101838.19;;;28.98;41.32
63281;BME280;49406;51.044;3.766;2022-08-02T10:21:27;101835.92;;;29.17;40.64
63281;BME280;49406;51.044;3.766;2022-08-02T10:24:06;101840.57;;;29.24;40.47
63281;BME280;49406;51.044;3.766;2022-08-02T10:26:40;101833.98;;;29.38;40.01
63281;BME280;49406;51.044;3.766;2022-08-02T10:29:17;101828.59;;;29.48;39.62
63281;BME280;49406;51.044;3.766;2022-08-02T10:31:56;101833.33;;;29.60;39.72
63281;BME280;49406;51.044;3.766;2022-08-02T10:34:35;101831.72;;;29.79;39.54
63281;BME280;49406;51.044;3.766;2022-08-02T10:37:10;101830.06;;;30.08;39.12
63281;BME280;49406;51.044;3.766;2022-08-02T10:39:46;101829.13;;;30.28;38.01
63281;BME280;49406;51.044;3.766;2022-08-02T10:42:45;101827.55;;;30.24;37.81
63281;BME280;49406;51.044;3.766;2022-08-02T10:45:21;101825.64;;;30.26;38.06
63281;BME280;49406;51.044;3.766;2022-08-02T10:48:00;101823.31;;;30.38;36.46
63281;BME280;49406;51.044;3.766;2022-08-02T10:50:55;101823.40;;;30.48;35.71
63281;BME280;49406;51.044;3.766;2022-08-02T10:53:30;101816.77;;;30.66;35.95
63281;BME280;49406;51.044;3.766;2022-08-02T10:56:06;101816.23;;;30.86;35.32
63281;BME280;49406;51.044;3.766;2022-08-02T10:58:40;101817.73;;;31.05;35.26
63281;BME280;49406;51.044;3.766;2022-08-02T11:01:29;101816.62;;;31.15;34.75
63281;BME280;49406;51.044;3.766;2022-08-02T11:04:05;101819.96;;;31.25;34.56
63281;BME280;49406;51.044;3.766;2022-08-02T11:07:09;101813.46;;;31.07;34.71
63281;BME280;49406;51.044;3.766;2022-08-02T11:09:44;101813.21;;;30.91;35.15
63281;BME280;49406;51.044;3.766;2022-08-02T11:12:20;101808.73;;;30.97;35.37
63281;BME280;49406;51.044;3.766;2022-08-02T11:15:03;101811.15;;;31.04;35.81
63281;BME280;49406;51.044;3.766;2022-08-02T11:20:36;101812.98;;;31.50;35.24
63281;BME280;49406;51.044;3.766;2022-08-02T11:23:36;101810.90;;;31.48;34.92
63281;BME280;49406;51.044;3.766;2022-08-02T11:26:43;101803.16;;;31.36;35.55
63281;BME280;49406;51.044;3.766;2022-08-02T11:29:18;101804.90;;;31.31;35.83
63281;BME280;49406;51.044;3.766;2022-08-02T11:31:53;101806.28;;;31.30;35.33
63281;BME280;49406;51.044;3.766;2022-08-02T11:34:29;101808.16;;;31.37;35.86
63281;BME280;49406;51.044;3.766;2022-08-02T11:37:04;101803.95;;;31.49;36.03
63281;BME280;49406;51.044;3.766;2022-08-02T11:39:39;101801.70;;;31.59;35.79
63281;BME280;49406;51.044;3.766;2022-08-02T11:42:13;101803.10;;;31.62;35.71
63281;BME280;49406;51.044;3.766;2022-08-02T11:44:48;101804.24;;;31.53;36.03
63281;BME280;49406;51.044;3.766;2022-08-02T11:47:23;101804.10;;;31.38;36.47
63281;BME280;49406;51.044;3.766;2022-08-02T11:50:06;101797.77;;;31.27;36.50
63281;BME280;49406;51.044;3.766;2022-08-02T11:52:41;101791.19;;;31.11;36.98
63281;BME280;49406;51.044;3.766;2022-08-02T11:55:16;101797.02;;;31.19;36.99
63281;BME280;49406;51.044;3.766;2022-08-02T11:57:58;101789.97;;;31.39;36.55
63281;BME280;49406;51.044;3.766;2022-08-02T12:00:33;101792.26;;;31.42;36.65
63281;BME280;49406;51.044;3.766;2022-08-02T12:03:08;101788.05;;;31.46;37.07
63281;BME280;49406;51.044;3.766;2022-08-02T12:05:49;101786.55;;;31.59;36.71
63281;BME280;49406;51.044;3.766;2022-08-02T12:08:25;101781.05;;;31.60;36.72
63281;BME280;49406;51.044;3.766;2022-08-02T12:11:02;101785.56;;;31.65;36.53
63281;BME280;49406;51.044;3.766;2022-08-02T12:13:44;101785.11;;;31.72;36.21
63281;BME280;49406;51.044;3.766;2022-08-02T12:16:18;101777.98;;;31.73;35.95
63281;BME280;49406;51.044;3.766;2022-08-02T12:19:10;101787.83;;;31.78;36.41
63281;BME280;49406;51.044;3.766;2022-08-02T12:22:16;101787.07;;;31.72;36.51
63281;BME280;49406;51.044;3.766;2022-08-02T12:24:53;101786.81;;;31.79;36.61
63281;BME280;49406;51.044;3.766;2022-08-02T12:27:32;101780.16;;;31.95;36.30
63281;BME280;49406;51.044;3.766;2022-08-02T12:30:09;101782.77;;;31.96;36.41
63281;BME280;49406;51.044;3.766;2022-08-02T12:32:44;101784.06;;;31.91;36.75
63281;BME280;49406;51.044;3.766;2022-08-02T12:35:19;101781.96;;;31.97;36.49
63281;BME280;49406;51.044;3.766;2022-08-02T12:37:54;101782.05;;;31.83;36.59
63281;BME280;49406;51.044;3.766;2022-08-02T12:40:32;101778.75;;;31.67;36.88
63281;BME280;49406;51.044;3.766;2022-08-02T12:43:07;101777.17;;;31.66;37.49
63281;BME280;49406;51.044;3.766;2022-08-02T12:45:51;101774.83;;;31.69;36.72
63281;BME280;49406;51.044;3.766;2022-08-02T12:48:33;101774.17;;;31.65;36.73
63281;BME280;49406;51.044;3.766;2022-08-02T12:51:22;101772.38;;;31.73;37.15
63281;BME280;49406;51.044;3.766;2022-08-02T12:54:15;101768.00;;;31.87;36.97
63281;BME280;49406;51.044;3.766;2022-08-02T12:56:50;101763.75;;;31.97;36.73
63281;BME280;49406;51.044;3.766;2022-08-02T12:59:38;101761.41;;;32.05;36.51
63281;BME280;49406;51.044;3.766;2022-08-02T13:02:13;101753.41;;;32.14;36.45
63281;BME280;49406;51.044;3.766;2022-08-02T13:04:48;101755.70;;;32.09;36.71
63281;BME280;49406;51.044;3.766;2022-08-02T13:07:22;101759.05;;;32.05;36.78
63281;BME280;49406;51.044;3.766;2022-08-02T13:09:57;101753.80;;;32.05;36.11
63281;BME280;49406;51.044;3.766;2022-08-02T13:12:31;101755.45;;;31.91;36.47
63281;BME280;49406;51.044;3.766;2022-08-02T13:15:09;101748.67;;;31.77;36.26
63281;BME280;49406;51.044;3.766;2022-08-02T13:17:44;101748.82;;;31.68;36.96
63281;BME280;49406;51.044;3.766;2022-08-02T13:20:18;101741.18;;;31.61;36.81
63281;BME280;49406;51.044;3.766;2022-08-02T13:22:53;101740.52;;;31.41;37.12
63281;BME280;49406;51.044;3.766;2022-08-02T13:25:28;101734.12;;;31.45;37.78
63281;BME280;49406;51.044;3.766;2022-08-02T13:28:02;101739.67;;;31.64;37.58
63281;BME280;49406;51.044;3.766;2022-08-02T13:30:37;101728.52;;;31.88;37.13
63281;BME280;49406;51.044;3.766;2022-08-02T13:33:12;101727.04;;;32.08;36.68
63281;BME280;49406;51.044;3.766;2022-08-02T13:35:47;101727.04;;;32.11;36.14
63281;BME280;49406;51.044;3.766;2022-08-02T13:38:22;101720.80;;;32.09;36.22
63281;BME280;49406;51.044;3.766;2022-08-02T13:40:56;101719.02;;;31.97;36.11
63281;BME280;49406;51.044;3.766;2022-08-02T13:43:43;101718.73;;;31.89;36.46
63281;BME280;49406;51.044;3.766;2022-08-02T13:46:18;101718.45;;;31.82;36.98
63281;BME280;49406;51.044;3.766;2022-08-02T13:48:53;101711.36;;;31.83;37.09
63281;BME280;49406;51.044;3.766;2022-08-02T13:51:28;101710.58;;;31.89;36.67
63281;BME280;49406;51.044;3.766;2022-08-02T13:54:02;101708.67;;;31.88;37.01
63281;BME280;49406;51.044;3.766;2022-08-02T13:56:37;101707.46;;;31.87;37.27
63281;BME280;49406;51.044;3.766;2022-08-02T13:59:12;101703.73;;;31.78;37.02
63281;BME280;49406;51.044;3.766;2022-08-02T14:01:46;101702.80;;;31.94;36.84